Shoukeimaruno.3 — JI3587 — position and weather

sailwx.info

Track history (hours):
 
Tides and Currents Weather Stations Pressure Air Temp Water Temp Dewpoint Dewpoint Depression Visibility Wind Speed Wind Dir Waves Ship Positions

Shoukeimaruno.3

Last reported at 2014-Nov-27 17:29 UTC. Time now 2014-Nov-28 08:37 UTC.
Position N 35°10' E 139°46'.

Length 77 m; draft 3.5 m.

Type: Cargo ship. MMSI: 431300325.

Date/timePositionNaut miles runAvg speedWind from/ knotsBaromVisibWave heightAir tempDewpointWater temp
2014-Nov-27 17:29N 35°10' E 139°46'1111.6
2014-Nov-27 16:34N 35°20' E 139°43'5 4.6
2014-Nov-27 15:32N 35°24' E 139°40'0 0.0
2014-Nov-27 14:32N 35°24' E 139°40'1 0.6
2014-Nov-27 13:33N 35°24' E 139°39'1 1.2
2014-Nov-27 12:33N 35°23' E 139°40'0 0.0
2014-Nov-27 11:31N 35°23' E 139°40'0 0.0
2014-Nov-27 10:31N 35°23' E 139°40'0 0.1
2014-Nov-27 09:31N 35°23' E 139°40'0 0.0
2014-Nov-27 08:31N 35°23' E 139°40'0 0.0
2014-Nov-27 07:31N 35°23' E 139°40'0 0.0
2014-Nov-27 06:31N 35°23' E 139°40'0 0.0
2014-Nov-27 05:28N 35°23' E 139°40'0 0.0
2014-Nov-27 04:31N 35°23' E 139°40'0 0.0
2014-Nov-27 03:28N 35°23' E 139°40'0 0.0
2014-Nov-27 02:28N 35°23' E 139°40'0 0.0
2014-Nov-27 01:31N 35°23' E 139°40'0 0.0
2014-Nov-27 00:31N 35°23' E 139°40'0 0.0
2014-Nov-26 23:31N 35°23' E 139°40'0 0.0
2014-Nov-26 22:31N 35°23' E 139°40'1 1.2
2014-Nov-26 21:32N 35°24' E 139°40'0 0.0
2014-Nov-26 20:32N 35°24' E 139°40'0 0.0
2014-Nov-26 19:32N 35°24' E 139°40'5 5.0
2014-Nov-26 18:33N 35°20' E 139°43'1212.0
2014-Nov-26 17:33N 35°08' E 139°46'7 0.1
2014-Nov-24 14:32N 35°15' E 139°46'1111.2
2014-Nov-24 13:33N 35°24' E 139°40'0 0.1
2014-Nov-24 12:33N 35°24' E 139°40'0 0.0
2014-Nov-24 11:33N 35°24' E 139°40'0 0.0
2014-Nov-24 10:33N 35°24' E 139°40'1 1.3
2014-Nov-24 09:32N 35°23' E 139°40'0 0.0
2014-Nov-24 08:32N 35°23' E 139°40'0 0.0
2014-Nov-24 07:29N 35°23' E 139°40'0 0.0
2014-Nov-24 06:32N 35°23' E 139°40'0 0.0
2014-Nov-24 05:32N 35°23' E 139°40'0 0.0
2014-Nov-24 04:32N 35°23' E 139°40'0 0.0
2014-Nov-24 03:32N 35°23' E 139°40'0 0.0
2014-Nov-24 02:32N 35°23' E 139°40'1 0.9
2014-Nov-24 01:33N 35°23' E 139°41'1111.1
2014-Nov-24 00:33N 35°13' E 139°47'  
Track history (hours):
 
Tides and Currents Weather Stations Pressure Air Temp Water Temp Dewpoint Dewpoint Depression Visibility Wind Speed Wind Dir Waves Ship Positions

Shoukeimaruno.3

Last reported at 2014-Nov-27 17:29 UTC. Time now 2014-Nov-28 08:37 UTC.
Position N 35°10' E 139°46'.

Length 77 m; draft 3.5 m.

Type: Cargo ship. MMSI: 431300325.

Date/timePositionNaut miles runAvg speedWind from/ knotsBaromVisibWave heightAir tempDewpointWater temp
2014-Nov-27 17:29N 35°10' E 139°46'1111.6
2014-Nov-27 16:34N 35°20' E 139°43'5 4.6
2014-Nov-27 15:32N 35°24' E 139°40'0 0.0
2014-Nov-27 14:32N 35°24' E 139°40'1 0.6
2014-Nov-27 13:33N 35°24' E 139°39'1 1.2
2014-Nov-27 12:33N 35°23' E 139°40'0 0.0
2014-Nov-27 11:31N 35°23' E 139°40'0 0.0
2014-Nov-27 10:31N 35°23' E 139°40'0 0.1
2014-Nov-27 09:31N 35°23' E 139°40'0 0.0
2014-Nov-27 08:31N 35°23' E 139°40'0 0.0
2014-Nov-27 07:31N 35°23' E 139°40'0 0.0
2014-Nov-27 06:31N 35°23' E 139°40'0 0.0
2014-Nov-27 05:28N 35°23' E 139°40'0 0.0
2014-Nov-27 04:31N 35°23' E 139°40'0 0.0
2014-Nov-27 03:28N 35°23' E 139°40'0 0.0
2014-Nov-27 02:28N 35°23' E 139°40'0 0.0
2014-Nov-27 01:31N 35°23' E 139°40'0 0.0
2014-Nov-27 00:31N 35°23' E 139°40'0 0.0
2014-Nov-26 23:31N 35°23' E 139°40'0 0.0
2014-Nov-26 22:31N 35°23' E 139°40'1 1.2
2014-Nov-26 21:32N 35°24' E 139°40'0 0.0
2014-Nov-26 20:32N 35°24' E 139°40'0 0.0
2014-Nov-26 19:32N 35°24' E 139°40'5 5.0
2014-Nov-26 18:33N 35°20' E 139°43'1212.0
2014-Nov-26 17:33N 35°08' E 139°46'7 0.1
2014-Nov-24 14:32N 35°15' E 139°46'1111.2
2014-Nov-24 13:33N 35°24' E 139°40'0 0.1
2014-Nov-24 12:33N 35°24' E 139°40'0 0.0
2014-Nov-24 11:33N 35°24' E 139°40'0 0.0
2014-Nov-24 10:33N 35°24' E 139°40'1 1.3
2014-Nov-24 09:32N 35°23' E 139°40'0 0.0
2014-Nov-24 08:32N 35°23' E 139°40'0 0.0
2014-Nov-24 07:29N 35°23' E 139°40'0 0.0
2014-Nov-24 06:32N 35°23' E 139°40'0 0.0
2014-Nov-24 05:32N 35°23' E 139°40'0 0.0
2014-Nov-24 04:32N 35°23' E 139°40'0 0.0
2014-Nov-24 03:32N 35°23' E 139°40'0 0.0
2014-Nov-24 02:32N 35°23' E 139°40'1 0.9
2014-Nov-24 01:33N 35°23' E 139°41'1111.1
2014-Nov-24 00:33N 35°13' E 139°47'  

Dump ship's entire track history